createdAt,value
2019-01-17T00:00:18.130Z,70.20
2019-01-17T00:02:54.659Z,69.60
2019-01-17T00:05:42.660Z,69.80
2019-01-17T00:08:24.776Z,69.50
2019-01-17T00:11:04.222Z,69.80
2019-01-17T00:13:34.588Z,69.80
2019-01-17T00:16:14.673Z,70.10
2019-01-17T00:18:56.486Z,70.10
2019-01-17T00:21:42.675Z,70.20
2019-01-17T00:24:18.724Z,70.40
2019-01-17T00:27:06.987Z,70.30
2019-01-17T00:29:43.480Z,70.20
2019-01-17T00:32:13.906Z,69.90
2019-01-17T00:34:44.299Z,69.70
2019-01-17T00:37:14.503Z,69.70
2019-01-17T00:39:44.643Z,69.90
2019-01-17T00:42:14.967Z,70.20
2019-01-17T00:44:48.528Z,70.30
2019-01-17T00:47:18.910Z,70.30
2019-01-17T00:49:55.308Z,70.60
2019-01-17T00:52:28.464Z,70.80
2019-01-17T00:55:11.966Z,70.80
2019-01-17T00:57:51.038Z,70.80
2019-01-17T01:00:37.260Z,71.00
2019-01-17T01:03:15.441Z,71.30
2019-01-17T01:05:46.097Z,71.30
2019-01-17T01:08:32.578Z,71.40
2019-01-17T01:11:18.824Z,71.60
2019-01-17T01:13:51.814Z,71.50
2019-01-17T01:16:36.197Z,71.80
2019-01-17T01:19:06.292Z,71.80
2019-01-17T01:21:52.989Z,71.90
2019-01-17T01:24:29.750Z,72.10
2019-01-17T01:26:59.928Z,72.10
2019-01-17T01:29:41.468Z,72.10
2019-01-17T01:32:11.601Z,71.90
2019-01-17T01:34:48.579Z,71.90
2019-01-17T01:37:27.466Z,71.70
2019-01-17T01:40:03.416Z,72.00
2019-01-17T01:42:49.829Z,71.90
2019-01-17T01:45:22.670Z,71.80
2019-01-17T01:47:52.780Z,71.80
2019-01-17T01:50:25.786Z,72.10
2019-01-17T01:53:05.455Z,72.30
2019-01-17T01:55:34.136Z,72.10
2019-01-17T01:58:02.592Z,72.30
2019-01-17T02:00:31.150Z,72.40
2019-01-17T02:03:00.237Z,72.60
2019-01-17T02:05:28.937Z,72.90
2019-01-17T02:07:57.813Z,73.50
2019-01-17T02:10:26.406Z,73.70
2019-01-17T02:12:55.325Z,73.60
2019-01-17T02:15:24.153Z,73.50
2019-01-17T02:17:53.114Z,73.80
2019-01-17T02:20:21.510Z,74.00
2019-01-17T02:22:51.795Z,74.30
2019-01-17T02:25:20.497Z,74.80
2019-01-17T02:27:49.237Z,75.30
2019-01-17T02:30:17.789Z,76.00
2019-01-17T02:32:46.561Z,76.30
2019-01-17T02:35:14.965Z,76.70
2019-01-17T02:37:43.944Z,77.00
2019-01-17T02:40:12.793Z,77.20
2019-01-17T02:42:41.416Z,77.70
2019-01-17T02:45:12.928Z,78.20
2019-01-17T02:47:41.658Z,78.70
2019-01-17T02:50:11.374Z,79.20
2019-01-17T02:52:40.099Z,79.70
2019-01-17T02:55:10.832Z,79.80
2019-01-17T02:57:39.306Z,80.10
2019-01-17T03:00:13.882Z,80.40
2019-01-17T03:02:42.772Z,80.80
2019-01-17T03:05:11.381Z,80.90
2019-01-17T03:07:40.137Z,80.90
2019-01-17T03:10:11.904Z,81.00
2019-01-17T03:12:40.695Z,80.80
2019-01-17T03:15:10.293Z,80.80
2019-01-17T03:17:39.026Z,80.60
2019-01-17T03:20:10.427Z,80.50
2019-01-17T03:22:39.330Z,80.50
2019-01-17T03:25:09.832Z,80.40
2019-01-17T03:27:38.690Z,80.30
2019-01-17T03:30:13.217Z,80.20
2019-01-17T03:32:41.952Z,80.40
2019-01-17T03:35:11.005Z,80.60
2019-01-17T03:37:39.419Z,80.80
2019-01-17T03:40:11.403Z,80.90
2019-01-17T03:42:39.894Z,81.30
2019-01-17T03:45:10.536Z,81.20
2019-01-17T03:47:39.349Z,81.30
2019-01-17T03:50:15.085Z,81.40
2019-01-17T03:52:45.224Z,81.50
2019-01-17T03:55:15.938Z,81.50
2019-01-17T03:57:44.905Z,81.70
2019-01-17T04:00:19.066Z,81.70
2019-01-17T04:02:48.361Z,81.80
2019-01-17T04:05:17.351Z,81.90
2019-01-17T04:07:45.753Z,82.10
2019-01-17T04:10:15.405Z,82.20
2019-01-17T04:12:44.094Z,82.10
2019-01-17T04:15:13.887Z,81.90
2019-01-17T04:17:42.737Z,81.80
2019-01-17T04:20:13.618Z,81.50
2019-01-17T04:22:42.105Z,81.60
2019-01-17T04:25:11.313Z,81.80
2019-01-17T04:27:40.013Z,82.00
2019-01-17T04:30:14.305Z,82.00
2019-01-17T04:32:42.824Z,82.10
2019-01-17T04:35:11.441Z,82.20
2019-01-17T04:37:39.945Z,82.30
2019-01-17T04:40:11.134Z,82.30
2019-01-17T04:42:39.951Z,82.50
2019-01-17T04:45:11.193Z,82.40
2019-01-17T04:47:40.477Z,82.50
2019-01-17T04:50:12.491Z,82.40
2019-01-17T04:52:41.757Z,82.60
2019-01-17T04:55:12.516Z,82.50
2019-01-17T04:57:41.445Z,82.60
2019-01-17T05:00:13.246Z,82.50
2019-01-17T05:02:42.134Z,82.60
2019-01-17T05:05:11.209Z,82.50
2019-01-17T05:07:39.873Z,82.50
2019-01-17T05:10:11.476Z,82.60
2019-01-17T05:12:40.246Z,82.70
2019-01-17T05:15:10.347Z,82.80
2019-01-17T05:17:38.853Z,82.90
2019-01-17T05:20:13.062Z,82.90
2019-01-17T05:22:41.788Z,82.80
2019-01-17T05:25:12.731Z,82.80
2019-01-17T05:27:40.963Z,83.00
2019-01-17T05:30:12.614Z,83.10
2019-01-17T05:32:41.122Z,83.00
2019-01-17T05:35:09.875Z,83.00
2019-01-17T05:37:38.439Z,82.90
2019-01-17T05:40:15.756Z,82.90
2019-01-17T05:42:44.285Z,83.10
2019-01-17T05:45:12.941Z,83.10
2019-01-17T05:47:41.685Z,83.00
2019-01-17T05:50:12.973Z,83.10
2019-01-17T05:52:41.643Z,83.10
2019-01-17T05:55:10.764Z,83.00
2019-01-17T05:57:39.549Z,83.20
2019-01-17T06:00:11.285Z,83.00
2019-01-17T06:02:39.949Z,83.10
2019-01-17T06:05:09.127Z,82.90
2019-01-17T06:07:37.930Z,83.20
2019-01-17T06:10:09.539Z,83.20
2019-01-17T06:12:38.104Z,83.10
2019-01-17T06:15:09.300Z,83.40
2019-01-17T06:17:38.925Z,83.40
2019-01-17T06:20:11.148Z,83.40
2019-01-17T06:22:40.186Z,83.70
2019-01-17T06:25:08.885Z,83.80
2019-01-17T06:27:37.550Z,84.00
2019-01-17T06:30:09.241Z,83.90
2019-01-17T06:32:37.654Z,83.80
2019-01-17T06:35:08.537Z,83.60
2019-01-17T06:37:37.018Z,83.60
2019-01-17T06:40:20.229Z,83.70
2019-01-17T06:42:49.529Z,83.80
2019-01-17T06:45:18.057Z,83.70
2019-01-17T06:47:46.818Z,83.60
2019-01-17T06:50:16.528Z,83.60
2019-01-17T06:52:44.928Z,83.50
2019-01-17T06:55:13.431Z,83.60
2019-01-17T06:57:41.903Z,83.70
2019-01-17T07:00:16.551Z,83.60
2019-01-17T07:02:45.069Z,83.60
2019-01-17T07:05:14.977Z,83.60
2019-01-17T07:07:43.455Z,83.80
2019-01-17T07:10:14.676Z,83.90
2019-01-17T07:12:43.075Z,83.70
2019-01-17T07:15:11.829Z,83.60
2019-01-17T07:17:40.259Z,83.30
2019-01-17T07:20:11.646Z,83.30
2019-01-17T07:22:40.294Z,83.50
2019-01-17T07:25:10.386Z,83.30
2019-01-17T07:27:38.788Z,83.30
2019-01-17T07:30:10.591Z,83.20
2019-01-17T07:32:39.015Z,83.20
2019-01-17T07:35:08.897Z,83.10
2019-01-17T07:37:37.531Z,83.00
2019-01-17T07:40:08.014Z,82.90
2019-01-17T07:42:36.529Z,82.90
2019-01-17T07:45:08.004Z,83.00
2019-01-17T07:47:36.701Z,83.00
2019-01-17T07:50:08.353Z,83.00
2019-01-17T07:52:36.927Z,82.90
2019-01-17T07:55:08.129Z,83.50
2019-01-17T07:57:37.099Z,83.50
2019-01-17T08:00:11.663Z,83.50
2019-01-17T08:02:41.728Z,83.20
2019-01-17T08:05:10.265Z,83.00
2019-01-17T08:07:38.943Z,83.10
2019-01-17T08:10:11.628Z,83.00
2019-01-17T08:12:40.411Z,82.90
2019-01-17T08:15:10.982Z,83.20
2019-01-17T08:17:40.042Z,83.20
2019-01-17T08:20:12.070Z,83.20
2019-01-17T08:22:40.950Z,83.30
2019-01-17T08:25:11.829Z,83.20
2019-01-17T08:27:41.052Z,83.10
2019-01-17T08:30:15.069Z,83.30
2019-01-17T08:32:44.612Z,83.20
2019-01-17T08:35:13.533Z,83.20
2019-01-17T08:37:42.268Z,83.10
2019-01-17T08:40:20.111Z,83.10
2019-01-17T08:42:44.431Z,83.30
2019-01-17T08:45:13.030Z,83.30
2019-01-17T08:47:41.675Z,83.20
2019-01-17T08:50:15.185Z,83.60
2019-01-17T08:52:44.674Z,83.30
2019-01-17T08:55:13.174Z,83.30
2019-01-17T08:57:41.558Z,83.10
2019-01-17T09:00:13.412Z,83.00
2019-01-17T09:02:41.903Z,82.90
2019-01-17T09:05:11.158Z,82.90
2019-01-17T09:07:39.974Z,82.50
2019-01-17T09:10:14.193Z,82.50
2019-01-17T09:12:42.819Z,82.70
2019-01-17T09:15:14.342Z,82.90
2019-01-17T09:17:43.058Z,82.80
2019-01-17T09:20:13.775Z,82.10
2019-01-17T09:22:42.365Z,82.00
2019-01-17T09:25:13.366Z,81.80
2019-01-17T09:27:41.894Z,81.70
2019-01-17T09:30:16.183Z,81.70
2019-01-17T09:32:44.888Z,81.70
2019-01-17T09:35:14.883Z,81.60
2019-01-17T09:37:43.598Z,81.80
2019-01-17T09:40:17.279Z,81.80
2019-01-17T09:42:46.052Z,81.50
2019-01-17T09:45:14.728Z,81.10
2019-01-17T09:47:43.541Z,81.40
2019-01-17T09:50:17.244Z,81.60
2019-01-17T09:52:46.063Z,81.40
2019-01-17T09:55:14.701Z,81.10
2019-01-17T09:57:43.189Z,80.60
2019-01-17T10:00:17.607Z,80.50
2019-01-17T10:02:46.054Z,80.30
2019-01-17T10:05:14.436Z,80.20
2019-01-17T10:07:43.227Z,80.20
2019-01-17T10:10:16.968Z,79.70
2019-01-17T10:12:45.857Z,79.60
2019-01-17T10:15:23.862Z,78.90
2019-01-17T10:18:11.641Z,78.90
2019-01-17T10:20:46.331Z,78.90
2019-01-17T10:23:20.483Z,77.50
2019-01-17T10:25:52.840Z,78.30
2019-01-17T10:28:40.725Z,77.60
2019-01-17T10:31:46.654Z,77.80
2019-01-17T10:34:18.113Z,78.10
2019-01-17T10:37:07.474Z,77.50
2019-01-17T10:39:47.871Z,76.70
2019-01-17T10:42:25.033Z,74.60
2019-01-17T10:44:56.558Z,72.30
2019-01-17T10:47:33.859Z,72.80
2019-01-17T10:50:20.337Z,72.70
2019-01-17T10:52:51.864Z,71.20
2019-01-17T10:55:29.282Z,71.60
2019-01-17T10:58:24.836Z,71.30
2019-01-17T11:00:56.310Z,70.80
2019-01-17T11:03:36.382Z,71.80
2019-01-17T11:06:16.504Z,71.90
2019-01-17T11:08:51.245Z,71.60
2019-01-17T11:11:25.510Z,71.70
2019-01-17T11:14:08.907Z,71.40
2019-01-17T11:16:43.101Z,70.80
2019-01-17T11:19:20.176Z,70.80
2019-01-17T11:22:06.931Z,70.00
2019-01-17T11:24:41.223Z,69.40
2019-01-17T11:27:28.063Z,69.30
2019-01-17T11:29:59.833Z,69.70
2019-01-17T11:32:43.620Z,69.50
2019-01-17T11:35:27.069Z,69.70
2019-01-17T11:38:10.614Z,69.50
2019-01-17T11:40:57.237Z,69.20
2019-01-17T11:43:40.619Z,68.50
2019-01-17T11:46:20.824Z,68.80
2019-01-17T11:48:54.859Z,68.40
2019-01-17T11:51:26.586Z,68.20
2019-01-17T11:53:58.058Z,68.80
2019-01-17T11:56:48.406Z,68.80
2019-01-17T11:59:29.049Z,69.20
2019-01-17T12:02:07.777Z,70.00
2019-01-17T12:04:35.405Z,69.70
2019-01-17T12:07:07.126Z,69.80
2019-01-17T12:09:36.594Z,69.70
2019-01-17T12:12:05.352Z,70.10
2019-01-17T12:14:34.005Z,70.10
2019-01-17T12:17:02.486Z,70.10
2019-01-17T12:19:31.241Z,69.40
2019-01-17T12:21:59.978Z,69.70
2019-01-17T12:24:29.032Z,70.10
2019-01-17T12:26:57.674Z,70.40
2019-01-17T12:29:26.134Z,70.60
2019-01-17T12:31:54.590Z,70.30
2019-01-17T12:34:23.003Z,69.10
2019-01-17T12:36:51.637Z,69.30
2019-01-17T12:39:20.059Z,69.60
2019-01-17T12:41:48.700Z,69.70
2019-01-17T12:44:17.339Z,68.30
2019-01-17T12:46:45.786Z,67.70
2019-01-17T12:49:14.425Z,67.50
2019-01-17T12:51:43.053Z,68.70
2019-01-17T12:54:11.739Z,70.00
2019-01-17T12:56:41.294Z,70.00
2019-01-17T12:59:09.679Z,69.90
2019-01-17T13:01:38.130Z,70.10
2019-01-17T13:04:06.919Z,70.70
2019-01-17T13:06:35.342Z,71.70
2019-01-17T13:09:06.547Z,71.60
2019-01-17T13:11:35.175Z,70.50
2019-01-17T13:14:04.842Z,69.30
2019-01-17T13:16:33.260Z,69.30
2019-01-17T13:19:01.900Z,68.90
2019-01-17T13:21:30.325Z,68.90
2019-01-17T13:23:59.117Z,67.20
2019-01-17T13:26:27.572Z,66.40
2019-01-17T13:28:55.966Z,65.50
2019-01-17T13:31:24.541Z,64.80
2019-01-17T13:33:53.014Z,64.80
2019-01-17T13:36:21.433Z,64.40
2019-01-17T13:38:50.133Z,64.70
2019-01-17T13:41:18.525Z,64.50
2019-01-17T13:43:46.929Z,64.30
2019-01-17T13:46:15.374Z,64.70
2019-01-17T13:48:44.055Z,65.20
2019-01-17T13:51:12.698Z,65.70
2019-01-17T13:53:41.144Z,65.80
2019-01-17T13:56:09.878Z,65.10
2019-01-17T13:58:38.255Z,65.50
2019-01-17T14:01:07.145Z,66.10
2019-01-17T14:03:35.860Z,67.20
2019-01-17T14:06:04.781Z,67.60
2019-01-17T14:08:33.638Z,67.20
2019-01-17T14:11:02.598Z,67.90
2019-01-17T14:13:31.403Z,67.50
2019-01-17T14:16:00.185Z,68.00
2019-01-17T14:18:28.879Z,68.30
2019-01-17T14:20:57.344Z,68.60
2019-01-17T14:23:26.010Z,68.80
2019-01-17T14:25:54.499Z,69.10
2019-01-17T14:28:22.951Z,69.50
2019-01-17T14:30:51.657Z,69.80
2019-01-17T14:33:21.124Z,70.00
2019-01-17T14:35:49.765Z,70.50
2019-01-17T14:38:18.432Z,70.40
2019-01-17T14:40:46.928Z,70.90
2019-01-17T14:43:15.666Z,71.50
2019-01-17T14:45:44.465Z,71.50
2019-01-17T14:48:13.020Z,71.80
2019-01-17T14:50:41.671Z,71.90
2019-01-17T14:53:10.435Z,72.40
2019-01-17T14:55:39.093Z,72.20
2019-01-17T14:58:07.865Z,72.60
2019-01-17T15:00:36.630Z,74.10
2019-01-17T15:03:06.080Z,75.40
2019-01-17T15:05:34.616Z,74.80
2019-01-17T15:08:04.723Z,74.50
2019-01-17T15:10:38.689Z,75.00
2019-01-17T15:13:09.176Z,77.00
2019-01-17T15:15:37.805Z,77.80
2019-01-17T15:18:06.704Z,78.70
2019-01-17T15:20:35.609Z,79.10
2019-01-17T15:23:04.183Z,79.10
2019-01-17T15:25:32.631Z,78.90
2019-01-17T15:28:01.226Z,78.90
2019-01-17T15:30:29.928Z,78.80
2019-01-17T15:32:58.500Z,78.60
2019-01-17T15:35:27.010Z,78.90
2019-01-17T15:37:55.419Z,78.30
2019-01-17T15:40:26.350Z,77.90
2019-01-17T15:42:55.095Z,78.50
2019-01-17T15:45:23.842Z,78.60
2019-01-17T15:47:52.272Z,78.80
2019-01-17T15:50:21.207Z,78.60
2019-01-17T15:52:49.863Z,78.50
2019-01-17T15:55:18.724Z,78.60
2019-01-17T15:57:47.441Z,78.90
2019-01-17T16:00:24.236Z,78.20
2019-01-17T16:02:53.020Z,78.50
2019-01-17T16:05:21.746Z,78.30
2019-01-17T16:07:50.147Z,78.10
2019-01-17T16:10:19.187Z,78.30
2019-01-17T16:12:48.108Z,78.50
2019-01-17T16:15:18.844Z,78.50
2019-01-17T16:17:47.763Z,78.10
2019-01-17T16:20:17.258Z,78.10
2019-01-17T16:22:46.082Z,77.90
2019-01-17T16:25:16.191Z,77.80
2019-01-17T16:27:44.920Z,77.90
2019-01-17T16:30:22.316Z,77.70
2019-01-17T16:32:50.985Z,77.60
2019-01-17T16:35:19.384Z,76.80
2019-01-17T16:37:48.074Z,76.40
2019-01-17T16:40:17.186Z,76.40
2019-01-17T16:42:45.838Z,76.70
2019-01-17T16:45:17.719Z,76.50
2019-01-17T16:47:46.133Z,76.60
2019-01-17T16:50:19.470Z,76.70
2019-01-17T16:52:48.174Z,77.20
2019-01-17T16:55:16.650Z,76.50
2019-01-17T16:57:49.291Z,76.30
2019-01-17T17:00:24.603Z,76.70
2019-01-17T17:02:53.185Z,77.70
2019-01-17T17:05:22.724Z,75.70
2019-01-17T17:07:51.146Z,76.00
2019-01-17T17:10:19.929Z,76.30
2019-01-17T17:12:48.460Z,77.00
2019-01-17T17:15:17.448Z,77.30
2019-01-17T17:17:45.902Z,76.80
2019-01-17T17:20:20.929Z,77.70
2019-01-17T17:22:49.735Z,78.30
2019-01-17T17:25:18.178Z,78.20
2019-01-17T17:27:47.077Z,78.60
2019-01-17T17:30:20.946Z,79.00
2019-01-17T17:32:49.384Z,79.30
2019-01-17T17:35:18.168Z,78.90
2019-01-17T17:37:46.596Z,79.10
2019-01-17T17:40:28.567Z,79.20
2019-01-17T17:42:57.052Z,79.00
2019-01-17T17:45:25.449Z,78.70
2019-01-17T17:47:54.289Z,78.50
2019-01-17T17:50:23.931Z,78.40
2019-01-17T17:52:52.683Z,78.70
2019-01-17T17:55:21.336Z,79.00
2019-01-17T17:57:50.694Z,79.10
2019-01-17T18:00:46.043Z,79.00
2019-01-17T18:03:14.453Z,78.40
2019-01-17T18:05:42.876Z,78.70
2019-01-17T18:08:11.757Z,78.70
2019-01-17T18:10:40.444Z,77.80
2019-01-17T18:13:09.122Z,77.20
2019-01-17T18:15:37.786Z,76.80
2019-01-17T18:18:07.867Z,75.90
2019-01-17T18:20:36.682Z,76.20
2019-01-17T18:23:05.557Z,76.30
2019-01-17T18:25:35.359Z,75.60
2019-01-17T18:28:08.793Z,75.50
2019-01-17T18:30:34.788Z,74.70
2019-01-17T18:33:03.311Z,74.60
2019-01-17T18:35:31.731Z,75.20
2019-01-17T18:38:00.450Z,75.40
2019-01-17T18:40:29.028Z,75.20
2019-01-17T18:42:57.461Z,75.60
2019-01-17T18:45:27.244Z,76.00
2019-01-17T18:47:56.025Z,75.80
2019-01-17T18:50:27.322Z,75.70
2019-01-17T18:52:56.297Z,75.70
2019-01-17T18:55:24.857Z,75.70
2019-01-17T18:57:53.767Z,75.00
2019-01-17T19:00:26.467Z,75.20
2019-01-17T19:02:54.930Z,75.30
2019-01-17T19:05:24.027Z,74.90
2019-01-17T19:07:52.997Z,74.60
2019-01-17T19:10:21.886Z,74.30
2019-01-17T19:12:50.980Z,73.00
2019-01-17T19:15:30.388Z,73.30
2019-01-17T19:18:00.317Z,73.60
2019-01-17T19:20:29.003Z,72.90
2019-01-17T19:22:58.651Z,73.60
2019-01-17T19:25:28.112Z,74.10
2019-01-17T19:27:56.792Z,73.40
2019-01-17T19:30:28.538Z,73.20
2019-01-17T19:32:57.426Z,74.00
2019-01-17T19:35:26.114Z,74.00
2019-01-17T19:37:55.670Z,73.50
2019-01-17T19:40:29.221Z,73.20
2019-01-17T19:42:57.804Z,73.50
2019-01-17T19:45:26.732Z,73.20
2019-01-17T19:47:55.581Z,73.70
2019-01-17T19:50:29.369Z,73.70
2019-01-17T19:52:58.236Z,73.80
2019-01-17T19:55:28.880Z,73.70
2019-01-17T19:57:57.405Z,72.80
2019-01-17T20:00:26.333Z,71.70
2019-01-17T20:02:54.942Z,71.40
2019-01-17T20:05:31.892Z,71.70
2019-01-17T20:08:00.633Z,71.50
2019-01-17T20:10:31.333Z,71.20
2019-01-17T20:13:00.455Z,71.60
2019-01-17T20:15:29.835Z,71.70
2019-01-17T20:17:58.380Z,70.70
2019-01-17T20:20:31.876Z,71.30
2019-01-17T20:22:57.358Z,71.20
2019-01-17T20:25:25.806Z,71.30
2019-01-17T20:27:54.717Z,71.70
2019-01-17T20:30:25.788Z,71.90
2019-01-17T20:32:55.156Z,71.60
2019-01-17T20:35:24.912Z,71.80
2019-01-17T20:37:53.788Z,72.00
2019-01-17T20:40:23.971Z,72.10
2019-01-17T20:42:53.500Z,71.90
2019-01-17T20:45:22.389Z,72.10
2019-01-17T20:47:52.154Z,72.00
2019-01-17T20:50:27.163Z,71.80
2019-01-17T20:52:56.792Z,72.10
2019-01-17T20:55:25.295Z,71.60
2019-01-17T20:57:53.975Z,72.00
2019-01-17T21:00:31.496Z,71.90
2019-01-17T21:03:00.488Z,71.60
2019-01-17T21:05:29.340Z,71.10
2019-01-17T21:07:57.866Z,71.10
2019-01-17T21:10:26.371Z,71.20
2019-01-17T21:12:55.176Z,70.80
2019-01-17T21:15:24.125Z,71.00
2019-01-17T21:17:54.831Z,71.00
2019-01-17T21:20:23.752Z,71.10
2019-01-17T21:22:52.670Z,71.80
2019-01-17T21:25:21.513Z,70.80
2019-01-17T21:27:49.960Z,70.90
2019-01-17T21:30:24.452Z,71.20
2019-01-17T21:32:53.008Z,71.40
2019-01-17T21:35:21.633Z,71.00
2019-01-17T21:37:50.089Z,71.10
2019-01-17T21:40:21.023Z,70.90
2019-01-17T21:42:49.847Z,71.40
2019-01-17T21:45:19.012Z,71.20
2019-01-17T21:47:47.787Z,71.80
2019-01-17T21:50:19.530Z,72.10
2019-01-17T21:52:47.940Z,71.80
2019-01-17T21:55:16.917Z,72.10
2019-01-17T21:57:46.215Z,71.90
2019-01-17T22:00:23.009Z,71.90
2019-01-17T22:02:52.023Z,71.60
2019-01-17T22:05:20.764Z,71.90
2019-01-17T22:07:49.502Z,71.90
2019-01-17T22:10:19.041Z,72.10
2019-01-17T22:12:47.784Z,71.70
2019-01-17T22:15:24.547Z,72.00
2019-01-17T22:17:53.468Z,72.30
2019-01-17T22:20:22.040Z,72.70
2019-01-17T22:22:50.770Z,73.00
2019-01-17T22:25:20.598Z,73.00
2019-01-17T22:27:53.127Z,72.80
2019-01-17T22:30:23.698Z,73.40
2019-01-17T22:32:52.169Z,73.30
2019-01-17T22:35:20.553Z,73.50
2019-01-17T22:37:49.303Z,73.40
2019-01-17T22:40:18.672Z,72.90
2019-01-17T22:42:47.099Z,73.00
2019-01-17T22:45:18.317Z,73.50
2019-01-17T22:47:46.806Z,73.70
2019-01-17T22:50:17.952Z,73.60
2019-01-17T22:52:47.174Z,73.70
2019-01-17T22:55:15.612Z,73.70
2019-01-17T22:57:44.013Z,71.80
2019-01-17T23:00:26.494Z,72.20
2019-01-17T23:02:54.900Z,72.30
2019-01-17T23:05:24.012Z,72.30
2019-01-17T23:07:52.431Z,72.30
2019-01-17T23:10:20.914Z,72.00
2019-01-17T23:12:49.543Z,71.70
2019-01-17T23:15:18.206Z,71.70
2019-01-17T23:17:46.620Z,71.60
2019-01-17T23:20:15.410Z,70.70
2019-01-17T23:22:44.094Z,71.10
2019-01-17T23:25:12.776Z,70.40
2019-01-17T23:27:41.190Z,70.40
2019-01-17T23:30:12.317Z,70.70
2019-01-17T23:32:40.943Z,70.70
2019-01-17T23:35:09.772Z,71.00
2019-01-17T23:37:38.460Z,71.00
2019-01-17T23:40:09.574Z,70.10
2019-01-17T23:42:37.987Z,69.80
2019-01-17T23:45:08.815Z,70.30
2019-01-17T23:47:38.125Z,70.50
2019-01-17T23:50:09.159Z,70.60
2019-01-17T23:52:37.592Z,70.20
2019-01-17T23:55:07.355Z,70.10
2019-01-17T23:57:36.014Z,70.40
